Time;durP1;ratioP1;P1;durP2;ratioP2;P2;SDS_P1;SDS_P2;PMS_P1;PMS_P2;Temp;Humidity;BMP_temperature;BMP_pressure;BME280_temperature;BME280_humidity;BME280_pressure;Samples;Min_cycle;Max_cycle;Signal;HPM_P1;HPM_P2
2021/11/02 00:00:17;;;;;;;71.15;46.45;;;;;;;8.56;78.73;100807.02;1762661;80;21436;-77
2021/11/02 00:02:44;;;;;;;78.95;48.92;;;;;;;8.59;78.85;100798.58;1765595;79;21493;-77
2021/11/02 00:05:13;;;;;;;74.50;45.75;;;;;;;8.63;78.80;100807.97;1724702;81;20955;-78
2021/11/02 00:07:41;;;;;;;75.78;49.48;;;;;;;8.66;78.74;100802.58;1759021;80;21098;-77
2021/11/02 00:10:09;;;;;;;81.87;51.88;;;;;;;8.66;78.74;100796.52;1716482;81;20916;-77
2021/11/02 00:12:36;;;;;;;78.60;50.78;;;;;;;8.66;78.70;100799.97;1761627;80;21471;-78
2021/11/02 00:15:05;;;;;;;79.47;52.03;;;;;;;8.66;78.67;100795.20;1763776;79;21143;-77
2021/11/02 00:17:35;;;;;;;79.15;49.85;;;;;;;8.64;78.72;100794.44;1728573;81;20897;-78
2021/11/02 00:20:03;;;;;;;70.85;46.28;;;;;;;8.63;78.89;100792.75;1756941;79;20998;-76
2021/11/02 00:22:32;;;;;;;73.65;48.38;;;;;;;8.60;78.99;100787.66;1756907;80;21022;-77
2021/11/02 00:25:05;;;;;;;75.62;47.78;;;;;;;8.55;79.29;100791.80;1772893;79;20990;-78
2021/11/02 00:27:37;;;;;;;81.20;48.98;;;;;;;8.54;79.43;100789.26;1741106;82;22046;-77
2021/11/02 00:30:10;;;;;;;76.05;47.62;;;;;;;8.55;79.59;100791.80;1748553;80;20954;-77
2021/11/02 00:32:39;;;;;;;69.72;46.60;;;;;;;8.57;79.78;100787.82;1748172;80;21077;-78
2021/11/02 00:35:08;;;;;;;72.62;47.27;;;;;;;8.57;79.79;100785.20;1709196;82;20956;-79
2021/11/02 00:37:35;;;;;;;77.37;48.52;;;;;;;8.54;79.93;100773.58;1715876;83;20959;-78
2021/11/02 00:42:40;;;;;;;78.17;50.60;;;;;;;8.66;80.15;100767.76;1798809;79;22380;-78
2021/11/02 00:45:11;;;;;;;84.35;52.25;;;;;;;8.67;80.30;100773.35;1758368;81;20976;-79
2021/11/02 00:47:38;;;;;;;76.67;51.42;;;;;;;8.75;80.21;100778.22;1758373;81;21176;-78
2021/11/02 00:50:10;;;;;;;81.22;50.60;;;;;;;8.80;80.05;100774.91;1758618;80;20971;-77
2021/11/02 00:52:38;;;;;;;77.75;50.17;;;;;;;8.85;79.88;100771.63;1758368;81;20904;-77
2021/11/02 00:55:07;;;;;;;79.22;51.53;;;;;;;8.89;79.67;100775.31;1758803;80;20865;-78
2021/11/02 00:57:35;;;;;;;74.95;50.52;;;;;;;8.92;79.80;100768.60;1759244;81;21050;-78
2021/11/02 01:00:05;;;;;;;76.50;48.23;;;;;;;8.97;79.78;100767.06;1758353;81;21513;-78
2021/11/02 01:02:32;;;;;;;79.75;50.58;;;;;;;9.02;79.54;100758.97;1758428;81;20927;-77
2021/11/02 01:04:59;;;;;;;73.50;49.63;;;;;;;9.03;79.43;100758.91;1758272;81;20951;-78
2021/11/02 01:07:26;;;;;;;80.45;50.03;;;;;;;9.05;79.31;100757.53;1758365;81;20884;-78
2021/11/02 01:09:53;;;;;;;81.75;49.58;;;;;;;9.06;79.24;100753.97;1758638;81;20991;-79
2021/11/02 01:12:20;;;;;;;73.47;47.33;;;;;;;9.06;79.24;100747.44;1758224;81;21143;-77
2021/11/02 01:14:49;;;;;;;83.58;52.93;;;;;;;9.07;79.24;100746.05;1758242;81;20928;-77
2021/11/02 01:17:16;;;;;;;77.85;52.13;;;;;;;9.06;79.29;100736.50;1758508;80;20927;-79
2021/11/02 01:19:43;;;;;;;75.25;48.83;;;;;;;9.08;79.54;100736.43;1758556;81;20968;-78
2021/11/02 01:22:10;;;;;;;81.20;51.02;;;;;;;9.15;79.48;100731.72;1758345;81;21397;-76
2021/11/02 01:24:38;;;;;;;70.95;48.23;;;;;;;9.16;79.15;100725.55;1758094;81;21158;-78
2021/11/02 01:27:05;;;;;;;78.33;50.17;;;;;;;9.13;79.18;100725.25;1758561;81;20983;-76
2021/11/02 01:29:33;;;;;;;76.15;47.58;;;;;;;9.11;79.27;100717.95;1758222;81;20908;-77
2021/11/02 01:32:00;;;;;;;68.60;46.68;;;;;;;9.09;79.44;100718.05;1758376;80;20948;-78
2021/11/02 01:34:29;;;;;;;83.82;46.83;;;;;;;9.09;79.63;100711.51;1757782;81;20912;-78
2021/11/02 01:36:57;;;;;;;71.85;47.17;;;;;;;9.12;79.76;100707.88;1758293;80;21070;-78
2021/11/02 01:39:26;;;;;;;72.65;44.77;;;;;;;9.16;79.79;100699.39;1758247;80;20908;-79
2021/11/02 01:41:53;;;;;;;73.17;45.08;;;;;;;9.16;79.75;100694.16;1757624;81;20928;-78
2021/11/02 01:44:20;;;;;;;73.97;46.63;;;;;;;9.17;79.82;100703.24;1758428;81;20939;-79
2021/11/02 01:46:47;;;;;;;74.32;46.63;;;;;;;9.15;79.90;100703.78;1758840;81;20975;-79
2021/11/02 01:49:17;;;;;;;80.97;49.35;;;;;;;9.17;80.04;100704.55;1758708;81;21468;-79
2021/11/02 01:51:43;;;;;;;71.22;47.48;;;;;;;9.20;80.13;100697.84;1758447;81;20988;-79
2021/11/02 01:54:11;;;;;;;81.30;49.75;;;;;;;9.24;80.09;100684.14;1759628;80;20860;-78
2021/11/02 01:56:41;;;;;;;68.37;47.43;;;;;;;9.27;79.99;100694.43;1758882;81;21327;-78
2021/11/02 01:59:08;;;;;;;68.05;45.78;;;;;;;9.25;79.97;100697.15;1758124;81;20829;-78
2021/11/02 02:02:07;;;;;;;65.72;46.60;;;;;;;9.27;80.12;100698.35;1757422;81;21172;-79
2021/11/02 02:05:16;;;;;;;76.40;49.03;;;;;;;9.27;80.22;100699.22;1758231;80;20928;-77
2021/11/02 02:08:21;;;;;;;73.95;49.40;;;;;;;9.30;80.31;100689.05;1757520;80;20951;-78
2021/11/02 02:11:15;;;;;;;83.42;48.58;;;;;;;9.33;80.40;100687.56;1757690;81;20896;-78
2021/11/02 02:13:58;;;;;;;80.07;49.03;;;;;;;9.37;80.52;100676.01;1756899;81;20896;-79
2021/11/02 02:16:37;;;;;;;69.37;47.88;;;;;;;9.42;80.47;100667.44;1757897;80;21824;-78
2021/11/02 02:19:45;;;;;;;71.72;46.83;;;;;;;9.45;80.53;100644.17;1758136;80;20920;-78
2021/11/02 02:22:46;;;;;;;75.78;49.33;;;;;;;9.45;80.52;100639.80;1758174;81;20963;-76
2021/11/02 02:25:41;;;;;;;68.75;47.00;;;;;;;9.45;80.60;100633.70;1757888;81;20932;-77
2021/11/02 02:28:14;;;;;;;75.17;48.52;;;;;;;9.43;80.92;100627.73;1757724;80;20917;-77
2021/11/02 02:30:52;;;;;;;78.02;50.23;;;;;;;9.43;81.05;100641.66;1757928;81;21149;-77
2021/11/02 02:33:23;;;;;;;84.07;48.65;;;;;;;9.43;81.12;100649.51;1757691;80;20999;-77
2021/11/02 02:35:50;;;;;;;78.40;50.78;;;;;;;9.45;81.33;100647.66;1758079;80;20900;-75
2021/11/02 02:38:20;;;;;;;75.17;48.02;;;;;;;9.49;81.42;100646.56;1757946;81;20888;-76
2021/11/02 02:40:47;;;;;;;76.20;49.83;;;;;;;9.53;81.49;100644.59;1758150;81;20932;-77
2021/11/02 02:43:14;;;;;;;66.82;46.37;;;;;;;9.57;81.64;100646.13;1757005;81;21490;-77
2021/11/02 02:45:43;;;;;;;68.28;46.73;;;;;;;9.62;81.71;100635.39;1758247;80;21117;-77
2021/11/02 02:48:10;;;;;;;70.45;48.10;;;;;;;9.64;81.62;100629.14;1757883;81;21504;-77
2021/11/02 02:50:37;;;;;;;87.85;52.83;;;;;;;9.65;81.66;100625.61;1758191;81;20928;-77
2021/11/02 02:53:04;;;;;;;82.70;53.42;;;;;;;9.68;81.94;100619.34;1760070;80;21224;-77
2021/11/02 02:55:32;;;;;;;83.22;54.08;;;;;;;9.73;81.82;100616.00;1758256;80;21502;-77
2021/11/02 02:58:00;;;;;;;78.85;50.35;;;;;;;9.76;81.87;100610.61;1757824;81;20908;-79
2021/11/02 03:00:27;;;;;;;85.77;53.60;;;;;;;9.81;81.87;100609.87;1758075;81;20900;-77
2021/11/02 03:02:56;;;;;;;76.25;48.80;;;;;;;9.86;81.98;100608.29;1757912;81;20975;-78
2021/11/02 03:05:24;;;;;;;85.95;52.10;;;;;;;9.91;81.99;100612.80;1758045;80;20963;-79
2021/11/02 03:07:55;;;;;;;82.85;50.63;;;;;;;9.93;82.11;100609.15;1757543;81;21114;-77
2021/11/02 03:10:22;;;;;;;74.47;49.93;;;;;;;9.98;82.08;100611.98;1758063;81;20897;-78
2021/11/02 03:12:51;;;;;;;73.00;43.90;;;;;;;10.00;82.11;100604.40;1757958;80;21425;-79
2021/11/02 03:18:36;;;;;;;66.37;41.95;;;;;;;10.13;82.08;100601.92;1757906;81;20974;-78
2021/11/02 03:48:33;;;;;;;54.98;37.38;;;;;;;10.38;82.14;100586.92;1744586;82;22172;-76
2021/11/02 03:58:48;;;;;;;51.98;36.25;;;;;;;10.46;82.04;100573.38;1744584;82;21480;-78
2021/11/02 04:01:35;;;;;;;51.23;36.90;;;;;;;10.48;81.89;100568.41;1743749;81;22162;-78
2021/11/02 04:24:24;;;;;;;57.98;33.70;;;;;;;10.55;82.17;100561.84;1735089;81;20905;-80
2021/11/02 04:45:40;;;;;;;42.38;32.10;;;;;;;10.67;82.55;100563.34;1757846;80;20900;-77
2021/11/02 05:48:18;;;;;;;41.42;33.05;;;;;;;11.35;81.22;100579.17;1759323;81;20873;-84
2021/11/02 06:01:23;;;;;;;43.23;34.30;;;;;;;11.46;80.77;100575.86;1758061;80;20869;-82
2021/11/02 06:04:09;;;;;;;41.63;32.60;;;;;;;11.50;80.71;100577.84;1757034;80;21382;-82
2021/11/02 06:06:42;;;;;;;38.33;28.98;;;;;;;11.52;80.60;100575.48;1756542;81;20885;-81
2021/11/02 06:29:06;;;;;;;27.75;24.30;;;;;;;11.66;80.14;100556.67;1760752;81;20960;-85
2021/11/02 06:31:36;;;;;;;29.98;22.90;;;;;;;11.67;80.05;100553.08;1759464;81;21095;-82
2021/11/02 06:42:29;;;;;;;24.50;21.70;;;;;;;11.67;80.03;100519.80;1758293;81;21410;-83
2021/11/02 07:15:12;;;;;;;35.78;28.02;;;;;;;11.66;81.07;100518.09;1736826;82;21046;-84
2021/11/02 07:18:49;;;;;;;35.20;26.17;;;;;;;11.66;81.24;100502.34;1693266;83;20975;-84
2021/11/02 07:21:30;;;;;;;32.65;25.45;;;;;;;11.67;81.25;100503.17;1692959;84;21528;-84
2021/11/02 07:24:11;;;;;;;35.68;29.50;;;;;;;11.64;81.30;100509.48;1692268;84;21066;-80
2021/11/02 08:48:31;;;;;;;13.08;11.78;;;;;;;12.02;82.23;100466.67;1758043;80;20876;-77
2021/11/02 08:51:00;;;;;;;13.18;11.78;;;;;;;12.06;82.17;100474.72;1758268;80;21132;-77
2021/11/02 08:53:27;;;;;;;15.43;11.65;;;;;;;12.08;82.15;100464.11;1758003;81;20880;-77
2021/11/02 08:55:55;;;;;;;13.53;11.22;;;;;;;12.12;82.03;100462.47;1758218;81;20900;-76
2021/11/02 08:58:26;;;;;;;14.58;11.88;;;;;;;12.18;82.11;100459.43;1757960;81;21549;-76
2021/11/02 09:00:55;;;;;;;16.80;12.07;;;;;;;12.22;81.87;100464.81;1758046;80;20924;-77
2021/11/02 09:03:25;;;;;;;17.75;11.57;;;;;;;12.28;81.92;100458.78;1758203;80;21142;-77
2021/11/02 09:05:56;;;;;;;14.90;10.88;;;;;;;12.34;81.83;100464.45;1758206;81;20995;-77
2021/11/02 09:08:23;;;;;;;14.75;10.55;;;;;;;12.41;81.34;100460.44;1758084;80;20893;-76
2021/11/02 09:10:50;;;;;;;12.53;11.00;;;;;;;12.42;81.32;100450.76;1758475;81;20915;-76
2021/11/02 09:13:17;;;;;;;14.50;9.98;;;;;;;12.43;81.15;100451.97;1758447;81;20884;-76
2021/11/02 09:15:47;;;;;;;11.63;9.28;;;;;;;12.47;81.17;100447.31;1758519;80;21125;-77
2021/11/02 09:18:14;;;;;;;9.53;8.63;;;;;;;12.47;80.84;100445.17;1758410;81;21109;-76
2021/11/02 09:20:41;;;;;;;14.18;9.70;;;;;;;12.47;81.02;100435.96;1758057;81;21627;-76
2021/11/02 09:23:08;;;;;;;8.58;7.60;;;;;;;12.47;81.00;100428.91;1758457;80;20904;-77
2021/11/02 09:25:35;;;;;;;8.03;7.22;;;;;;;12.52;80.97;100432.07;1758711;81;20952;-77
2021/11/02 09:28:02;;;;;;;8.18;6.37;;;;;;;12.53;80.84;100426.33;1758876;81;21082;-78
2021/11/02 09:30:31;;;;;;;7.17;6.58;;;;;;;12.54;80.78;100429.31;1758575;81;20999;-77
2021/11/02 09:32:58;;;;;;;7.22;6.47;;;;;;;12.53;80.57;100428.48;1759024;80;21477;-79
2021/11/02 09:35:30;;;;;;;7.65;6.95;;;;;;;12.54;80.49;100423.59;1759019;81;21003;-76
2021/11/02 09:38:23;;;;;;;7.75;7.00;;;;;;;12.52;80.37;100420.72;1759181;80;20919;-78
2021/11/02 09:41:36;;;;;;;8.45;6.78;;;;;;;12.47;80.37;100426.76;1758258;81;22027;-77
2021/11/02 09:44:18;;;;;;;9.30;8.08;;;;;;;12.41;80.50;100422.80;1754304;81;20984;-79
2021/11/02 09:47:25;;;;;;;8.90;8.03;;;;;;;12.36;80.76;100423.12;1744645;81;22189;-77
2021/11/02 09:50:30;;;;;;;8.73;7.78;;;;;;;12.33;80.89;100419.38;1745034;82;20917;-78
2021/11/02 09:53:20;;;;;;;11.15;9.05;;;;;;;12.34;81.24;100423.70;1745390;82;20889;-78
2021/11/02 09:56:25;;;;;;;9.60;8.65;;;;;;;12.35;81.30;100420.59;1709434;83;21090;-79
2021/11/02 09:59:18;;;;;;;11.20;10.10;;;;;;;12.36;81.33;100416.55;1745016;82;21007;-76
2021/11/02 10:02:13;;;;;;;9.48;8.30;;;;;;;12.37;81.50;100415.58;1745445;81;20873;-78
2021/11/02 10:05:07;;;;;;;10.08;9.15;;;;;;;12.41;81.39;100416.22;1745074;81;21442;-76
2021/11/02 10:08:11;;;;;;;11.40;10.28;;;;;;;12.40;81.47;100413.20;1745731;81;20976;-77
2021/11/02 10:10:46;;;;;;;11.80;10.03;;;;;;;12.40;81.58;100409.26;1745127;82;22436;-78
2021/11/02 10:13:35;;;;;;;11.48;10.30;;;;;;;12.42;81.72;100407.36;1744720;81;20940;-79
2021/11/02 10:16:13;;;;;;;12.15;9.40;;;;;;;12.46;81.79;100404.05;1744649;81;20956;-79
2021/11/02 10:18:59;;;;;;;11.25;10.15;;;;;;;12.47;81.69;100407.03;1744842;81;20984;-78
2021/11/02 10:22:10;;;;;;;12.58;9.35;;;;;;;12.46;81.58;100410.14;1744918;82;20925;-78
2021/11/02 10:25:04;;;;;;;11.18;9.85;;;;;;;12.44;81.59;100408.93;1744710;82;21151;-79
2021/11/02 10:28:02;;;;;;;10.78;9.40;;;;;;;12.44;81.61;100408.09;1744826;81;20920;-78
2021/11/02 10:30:40;;;;;;;9.43;8.48;;;;;;;12.42;81.60;100407.36;1745091;82;21339;-80
2021/11/02 10:33:36;;;;;;;9.20;8.30;;;;;;;12.43;81.65;100409.06;1743794;80;20886;-81
2021/11/02 10:36:35;;;;;;;9.70;8.70;;;;;;;12.47;81.69;100403.92;1744819;81;20983;-79
2021/11/02 10:39:23;;;;;;;9.25;8.35;;;;;;;12.48;81.46;100406.10;1744998;82;21136;-82
2021/11/02 10:42:36;;;;;;;9.60;8.38;;;;;;;12.46;81.55;100407.52;1687423;84;20861;-80
2021/11/02 10:45:06;;;;;;;11.18;8.55;;;;;;;12.46;81.55;100401.42;1745289;81;20988;-77
2021/11/02 10:48:09;;;;;;;10.68;7.58;;;;;;;12.45;81.56;100404.53;1745500;81;21016;-82
2021/11/02 10:50:40;;;;;;;9.38;8.28;;;;;;;12.46;81.61;100402.25;1745152;81;20888;-81
2021/11/02 10:53:08;;;;;;;9.93;8.93;;;;;;;12.47;81.66;100397.34;1744494;81;21820;-80
2021/11/02 10:55:56;;;;;;;9.95;8.80;;;;;;;12.50;81.71;100393.69;1745366;82;20933;-81
2021/11/02 10:58:51;;;;;;;11.35;6.90;;;;;;;12.54;81.82;100396.43;1745484;81;20929;-80
2021/11/02 11:01:21;;;;;;;9.37;7.63;;;;;;;12.56;81.77;100391.91;1746014;82;20889;-78
2021/11/02 11:03:48;;;;;;;8.08;7.28;;;;;;;12.57;81.67;100396.23;1692665;82;20901;-79
2021/11/02 11:06:15;;;;;;;10.32;7.53;;;;;;;12.55;81.80;100391.55;1745366;82;21136;-81
2021/11/02 11:08:47;;;;;;;8.90;8.08;;;;;;;12.56;81.70;100389.27;1745129;82;20897;-77
2021/11/02 11:11:18;;;;;;;9.13;8.23;;;;;;;12.56;81.72;100389.27;1745323;81;21441;-77
2021/11/02 11:13:48;;;;;;;13.50;8.83;;;;;;;12.57;81.73;100389.17;1745632;82;20928;-78
2021/11/02 11:16:17;;;;;;;11.40;8.50;;;;;;;12.58;81.56;100388.23;1744494;81;21559;-77
2021/11/02 11:19:09;;;;;;;12.88;10.18;;;;;;;12.57;81.60;100377.81;1745070;82;21811;-79
2021/11/02 11:21:39;;;;;;;12.10;9.38;;;;;;;12.59;81.60;100381.18;1744684;80;20866;-78
2021/11/02 11:24:26;;;;;;;11.33;9.55;;;;;;;12.58;81.77;100379.48;1745128;81;20968;-79
2021/11/02 11:26:54;;;;;;;15.00;9.70;;;;;;;12.60;81.87;100379.73;1744494;82;21498;-79
2021/11/02 11:29:26;;;;;;;13.35;10.30;;;;;;;12.61;81.65;100370.91;1746177;81;20885;-78
2021/11/02 11:31:55;;;;;;;10.75;9.28;;;;;;;12.60;81.59;100376.27;1745732;82;21130;-80
2021/11/02 11:34:38;;;;;;;10.72;8.35;;;;;;;12.58;81.49;100371.14;1745489;82;20971;-77
2021/11/02 11:37:11;;;;;;;26.48;10.45;;;;;;;12.55;81.63;100362.13;1745035;81;21402;-78
2021/11/02 11:39:42;;;;;;;11.33;8.53;;;;;;;12.53;81.71;100363.20;1745436;81;21087;-79
2021/11/02 11:42:14;;;;;;;12.37;9.35;;;;;;;12.48;82.05;100361.39;1745541;82;20990;-79
2021/11/02 11:44:43;;;;;;;10.35;8.43;;;;;;;12.50;82.19;100355.06;1689389;84;21111;-80
2021/11/02 11:47:14;;;;;;;14.75;9.70;;;;;;;12.51;82.29;100350.16;1709732;84;20860;-79
2021/11/02 11:49:45;;;;;;;19.07;11.22;;;;;;;12.52;82.25;100357.59;1709602;84;20857;-79
2021/11/02 11:52:11;;;;;;;12.25;10.08;;;;;;;12.53;82.27;100359.25;1744949;80;20964;-80
2021/11/02 11:54:47;;;;;;;14.43;11.97;;;;;;;12.53;82.38;100358.77;1745748;82;21623;-81
2021/11/02 11:57:35;;;;;;;17.15;13.35;;;;;;;12.53;82.45;100354.00;1745914;81;21141;-80
2021/11/02 12:00:08;;;;;;;18.50;13.75;;;;;;;12.52;82.46;100354.96;1745827;82;20881;-78
2021/11/02 12:02:54;;;;;;;17.12;13.48;;;;;;;12.52;82.45;100352.33;1744895;82;20905;-78
2021/11/02 12:05:22;;;;;;;18.98;14.28;;;;;;;12.50;82.47;100355.55;1745053;82;20913;-79
2021/11/02 12:08:09;;;;;;;21.05;15.58;;;;;;;12.53;82.47;100358.77;1744712;82;20968;-79
2021/11/02 12:10:37;;;;;;;27.87;14.25;;;;;;;12.53;82.51;100357.45;1744259;81;21097;-78
2021/11/02 12:13:07;;;;;;;23.05;14.80;;;;;;;12.55;82.47;100358.19;1744431;82;21402;-80
2021/11/02 12:15:58;;;;;;;22.27;15.80;;;;;;;12.56;82.47;100355.08;1744411;82;21406;-79
2021/11/02 12:18:21;;;;;;;21.42;15.10;;;;;;;12.56;82.50;100348.05;1743914;81;21015;-79
2021/11/02 12:20:50;;;;;;;28.27;18.37;;;;;;;12.59;82.55;100362.28;1744789;82;21422;-80
2021/11/02 12:23:35;;;;;;;28.38;18.37;;;;;;;12.61;82.45;100354.29;1744557;82;21151;-77
2021/11/02 12:26:04;;;;;;;25.75;18.55;;;;;;;12.57;82.33;100364.66;1744640;82;21450;-78
2021/11/02 12:28:41;;;;;;;29.98;19.60;;;;;;;12.54;82.49;100356.52;1744500;81;21545;-77
2021/11/02 12:31:14;;;;;;;32.28;20.37;;;;;;;12.52;82.57;100354.96;1744786;82;20945;-79
2021/11/02 12:33:59;;;;;;;;;;;;;;;;;;;;;
2021/11/02 12:36:25;;;;;;;37.85;21.93;;;;;;;12.52;83.04;100362.37;1738762;82;21536;-78
2021/11/02 12:39:04;;;;;;;33.18;23.83;;;;;;;12.57;83.11;100358.92;1744808;80;21533;-79
2021/11/02 12:41:31;;;;;;;34.65;20.37;;;;;;;12.61;82.98;100357.75;1745341;81;21424;-80
2021/11/02 12:44:12;;;;;;;34.45;20.60;;;;;;;12.62;82.79;100359.41;1744600;80;20897;-79
2021/11/02 12:46:43;;;;;;;40.20;21.73;;;;;;;12.58;82.78;100355.36;1749250;81;20865;-77
2021/11/02 12:49:12;;;;;;;35.98;21.52;;;;;;;12.54;82.93;100357.84;1741434;81;21129;-78
2021/11/02 12:51:45;;;;;;;40.40;23.27;;;;;;;12.52;83.03;100361.05;1757950;81;20880;-77
2021/11/02 12:54:20;;;;;;;39.58;23.27;;;;;;;12.51;83.22;100360.67;1740899;81;21505;-78
2021/11/02 12:59:36;;;;;;;42.00;25.92;;;;;;;12.53;83.29;100364.52;1816277;79;22574;-79
2021/11/02 13:02:21;;;;;;;40.00;23.83;;;;;;;12.47;83.46;100364.47;1789545;80;20884;-79
2021/11/02 13:05:02;;;;;;;44.45;24.55;;;;;;;12.47;83.61;100362.33;1789716;80;21166;-78
2021/11/02 13:07:38;;;;;;;48.75;24.57;;;;;;;12.47;83.75;100361.84;1781604;80;21010;-79
2021/11/02 13:10:20;;;;;;;43.38;25.35;;;;;;;12.48;83.86;100364.02;1789549;80;20955;-79
2021/11/02 13:12:50;;;;;;;47.45;26.25;;;;;;;12.49;83.81;100363.05;1789504;80;20986;-78
2021/11/02 13:15:18;;;;;;;45.08;25.92;;;;;;;12.48;83.83;100363.53;1789518;80;20932;-80
2021/11/02 13:17:50;;;;;;;50.55;33.30;;;;;;;12.47;84.05;100359.69;1789695;80;21136;-77
2021/11/02 13:20:35;;;;;;;42.10;24.37;;;;;;;12.51;84.22;100366.41;1790075;80;20927;-78
2021/11/02 13:23:03;;;;;;;44.63;26.27;;;;;;;12.54;84.31;100366.18;1789513;80;21027;-77
2021/11/02 13:25:39;;;;;;;44.98;25.85;;;;;;;12.57;84.22;100361.55;1789701;80;20919;-78
2021/11/02 13:28:06;;;;;;;48.38;26.97;;;;;;;12.57;84.15;100361.55;1788605;80;21002;-79
2021/11/02 13:30:42;;;;;;;45.03;26.45;;;;;;;12.57;84.19;100363.35;1789447;80;21205;-77
2021/11/02 13:33:12;;;;;;;40.88;24.72;;;;;;;12.55;84.29;100354.24;1789214;80;21017;-78
2021/11/02 13:35:50;;;;;;;36.42;23.73;;;;;;;12.56;84.51;100362.97;1789291;80;21385;-76
2021/11/02 13:38:35;;;;;;;36.48;23.80;;;;;;;12.57;84.37;100362.03;1789402;80;20940;-78
2021/11/02 13:41:32;;;;;;;39.48;24.15;;;;;;;12.54;84.47;100362.23;1789640;80;20845;-78
2021/11/02 13:44:04;;;;;;;32.90;21.42;;;;;;;12.56;84.63;100368.23;1789423;80;21159;-79
2021/11/02 13:46:35;;;;;;;31.45;21.68;;;;;;;12.58;84.66;100362.38;1789619;79;20932;-80
2021/11/02 13:49:05;;;;;;;33.83;19.82;;;;;;;12.61;84.62;100360.86;1789828;80;21298;-76
2021/11/02 13:51:32;;;;;;;26.73;19.02;;;;;;;12.62;84.58;100364.67;1789690;80;20892;-77
2021/11/02 13:54:00;;;;;;;26.75;17.87;;;;;;;12.62;84.50;100358.10;1789580;80;21318;-79
2021/11/02 13:56:36;;;;;;;27.60;19.15;;;;;;;12.61;84.53;100352.97;1789582;79;21109;-77
2021/11/02 13:59:06;;;;;;;24.80;19.15;;;;;;;12.57;84.44;100355.45;1779601;80;20995;-78
2021/11/02 14:01:50;;;;;;;24.92;18.57;;;;;;;12.56;84.64;100351.99;1775896;80;20905;-80
2021/11/02 14:04:32;;;;;;;28.17;19.37;;;;;;;12.58;84.84;100347.47;1775969;80;21465;-77
2021/11/02 14:07:10;;;;;;;30.23;18.65;;;;;;;12.61;84.69;100351.66;1775944;80;21470;-78
2021/11/02 14:09:45;;;;;;;29.77;19.52;;;;;;;12.59;84.64;100350.45;1775609;80;21330;-76
2021/11/02 14:12:27;;;;;;;27.87;20.50;;;;;;;12.58;84.82;100354.05;1775884;80;21846;-77
2021/11/02 14:15:14;;;;;;;31.68;21.02;;;;;;;12.62;85.01;100354.16;1775661;80;20987;-78
2021/11/02 14:17:46;;;;;;;34.53;25.17;;;;;;;12.70;85.02;100353.61;1775442;80;20991;-77
2021/11/02 14:20:35;;;;;;;33.28;23.47;;;;;;;12.74;85.03;100341.05;1775158;80;21054;-77
2021/11/02 14:23:04;;;;;;;30.35;21.77;;;;;;;12.77;84.68;100349.57;1775578;80;22157;-76
2021/11/02 14:25:39;;;;;;;36.88;22.93;;;;;;;12.75;84.62;100346.21;1775349;80;20889;-77
2021/11/02 14:28:06;;;;;;;;;;;;;;;12.72;84.71;100349.08;1778125;80;21343;-78
2021/11/02 14:30:43;;;;;;;37.00;23.67;;;;;;;12.71;84.67;100348.70;1775112;80;20104;-82
2021/11/02 14:33:23;;;;;;;33.55;23.05;;;;;;;12.72;84.83;100360.09;1775710;80;20845;-78
2021/11/02 14:36:04;;;;;;;33.08;23.32;;;;;;;12.73;84.97;100359.95;1728963;80;21152;-79
2021/11/02 14:38:44;;;;;;;36.63;23.70;;;;;;;12.76;84.91;100362.83;1776412;80;20880;-82
2021/11/02 14:41:33;;;;;;;36.08;24.35;;;;;;;12.78;84.91;100363.11;1762393;80;20897;-80
2021/11/02 14:44:27;;;;;;;32.83;22.90;;;;;;;12.79;84.88;100363.94;1776151;80;20873;-80
2021/11/02 14:46:55;;;;;;;36.68;23.20;;;;;;;12.79;84.94;100367.89;1773973;80;21390;-78
2021/11/02 14:49:36;;;;;;;35.03;24.15;;;;;;;12.77;84.96;100367.99;1775590;80;21108;-76
2021/11/02 14:52:09;;;;;;;26.87;18.82;;;;;;;12.76;85.13;100370.27;1775102;80;21347;-78
2021/11/02 14:54:43;;;;;;;30.20;21.30;;;;;;;12.77;85.22;100369.30;1775568;80;20908;-79
2021/11/02 14:57:26;;;;;;;26.73;19.87;;;;;;;12.75;85.33;100373.84;1774755;80;20861;-79
2021/11/02 14:59:57;;;;;;;25.08;17.85;;;;;;;12.77;85.44;100373.73;1775234;80;20971;-78
2021/11/02 15:02:43;;;;;;;26.45;18.48;;;;;;;12.79;85.49;100376.61;1775406;80;21829;-78
2021/11/02 15:05:15;;;;;;;27.85;17.73;;;;;;;12.84;85.66;100382.86;1775239;80;20842;-79
2021/11/02 15:07:45;;;;;;;27.22;17.98;;;;;;;12.89;85.50;100381.20;1753376;80;21441;-78
2021/11/02 15:10:14;;;;;;;26.62;18.32;;;;;;;12.91;85.50;100383.25;1775552;80;20877;-78
2021/11/02 15:12:44;;;;;;;31.80;19.48;;;;;;;12.92;85.40;100386.26;1775371;80;20885;-79
2021/11/02 15:15:11;;;;;;;29.60;18.55;;;;;;;12.90;85.43;100388.16;1754284;80;21113;-84
2021/11/02 15:17:38;;;;;;;27.55;19.15;;;;;;;12.91;85.54;100389.83;1775186;80;21441;-83
2021/11/02 15:20:07;;;;;;;27.98;19.37;;;;;;;12.94;85.76;100388.27;1775461;80;20975;-78
2021/11/02 15:22:33;;;;;;;27.13;19.32;;;;;;;12.97;85.54;100392.02;1775170;80;20935;-80
2021/11/02 15:25:04;;;;;;;22.95;17.10;;;;;;;12.99;85.59;100396.20;1775302;80;20889;-77
2021/11/02 15:27:35;;;;;;;27.30;18.90;;;;;;;13.03;85.53;100391.56;1775344;80;21126;-76
2021/11/02 15:30:09;;;;;;;26.23;18.48;;;;;;;13.04;85.43;100390.59;1775458;80;20885;-75
2021/11/02 15:32:42;;;;;;;28.40;18.52;;;;;;;13.04;85.38;100394.06;1775282;80;20972;-76
2021/11/02 15:35:15;;;;;;;27.32;19.77;;;;;;;13.08;85.63;100400.44;1775384;80;20984;-75
2021/11/02 15:37:47;;;;;;;29.35;19.23;;;;;;;13.13;85.66;100399.13;1775365;80;20971;-76
2021/11/02 15:40:21;;;;;;;26.87;18.15;;;;;;;13.19;85.49;100397.36;1775668;80;21121;-78
2021/11/02 15:42:56;;;;;;;32.75;20.10;;;;;;;13.26;85.40;100399.89;1775253;80;20944;-78
2021/11/02 15:45:31;;;;;;;24.98;18.73;;;;;;;13.33;85.25;100408.69;1775236;80;20857;-75
2021/11/02 15:48:11;;;;;;;29.77;20.92;;;;;;;13.34;85.04;100411.22;1774934;80;20975;-77
2021/11/02 15:50:45;;;;;;;31.35;22.75;;;;;;;13.35;84.95;100415.52;1775026;80;20951;-76
2021/11/02 15:53:13;;;;;;;27.87;21.40;;;;;;;13.36;84.82;100418.98;1774853;80;21091;-75
2021/11/02 15:55:40;;;;;;;29.60;22.13;;;;;;;13.36;84.81;100417.67;1775367;80;20888;-75
2021/11/02 15:58:09;;;;;;;35.70;25.23;;;;;;;13.37;84.91;100420.68;1775728;80;21019;-75
2021/11/02 16:00:45;;;;;;;38.08;28.38;;;;;;;13.40;84.95;100421.75;1783809;80;20876;-77
2021/11/02 16:03:12;;;;;;;34.65;25.27;;;;;;;13.43;84.89;100429.45;1783583;80;21362;-75
2021/11/02 16:05:42;;;;;;;38.33;27.13;;;;;;;13.44;84.78;100424.05;1783460;80;21160;-77
2021/11/02 16:08:17;;;;;;;35.43;26.05;;;;;;;13.45;84.68;100421.79;1783503;80;20908;-76
2021/11/02 16:10:45;;;;;;;30.57;23.18;;;;;;;13.48;84.67;100428.61;1783512;80;21428;-76
2021/11/02 16:13:12;;;;;;;19.48;16.32;;;;;;;13.47;84.56;100426.47;1783776;80;20900;-76
2021/11/02 16:15:40;;;;;;;29.82;21.70;;;;;;;13.43;84.47;100430.28;1783859;80;20935;-75
2021/11/02 16:18:16;;;;;;;23.57;18.80;;;;;;;13.40;84.60;100432.29;1783440;80;21151;-79
2021/11/02 16:20:44;;;;;;;19.27;15.13;;;;;;;13.37;84.73;100436.48;1783772;80;20975;-77
2021/11/02 16:23:15;;;;;;;18.77;14.93;;;;;;;13.36;84.80;100438.28;1783548;80;20856;-76
2021/11/02 16:25:49;;;;;;;16.15;11.83;;;;;;;13.33;84.86;100443.77;1783502;80;20908;-78
2021/11/02 16:28:20;;;;;;;12.23;10.77;;;;;;;13.31;84.91;100440.40;1784054;80;21002;-78
2021/11/02 16:30:53;;;;;;;14.58;11.28;;;;;;;13.30;84.94;100446.63;1783294;80;21206;-79
2021/11/02 16:33:43;;;;;;;12.18;10.78;;;;;;;13.27;84.91;100450.31;1783261;80;20857;-77
2021/11/02 16:36:28;;;;;;;15.10;10.85;;;;;;;13.24;84.77;100451.83;1784103;80;21334;-74
2021/11/02 16:39:01;;;;;;;15.65;12.50;;;;;;;13.17;84.66;100446.66;1783746;80;20940;-75
2021/11/02 16:41:36;;;;;;;15.78;11.78;;;;;;;13.08;84.59;100452.61;1783461;80;20900;-74
2021/11/02 16:44:10;;;;;;;18.95;13.30;;;;;;;13.00;84.63;100457.58;1782750;80;21413;-75